INFORMAÇÕES METEOROLÓGICAS
METAR FOR PAAK
ADDS - METARS form results

(2200 UTC 17 February 2019)
Data provider http://aviationweather.gov/metar/data/
 
METAR text: PAAK 172155Z AUTO 18031G45KT 1 3/4SM -RA OVC021 03/00 A2911 RMK AO2 PK WND 18046/2130 VIS 1 1/4V3 SLP860 T00330000 PNO $
Conditions at: PAAK (ATKA , AK, US) observed 2155 UTC 17 February 2019
Temperature: 3.3°C (38°F)
Dewpoint: 0.0°C (32°F) [RH = 79%]
Pressure (altimeter): 29.11 inches Hg (985.9 mb)
[Sea-level pressure:  986.0 mb]
Winds: from the S (180 degrees) at 36 MPH (31 knots; 15.9 m/s)
gusting to 52 MPH (45 knots; 23.1 m/s)
Visibility: 1.75 miles (2.82 km)
Ceiling: 2100 feet AGL
Clouds: overcast cloud deck at 2100 feet AGL
Weather: -RA  (light rain)
SOME DATA ABOVE MAY BE INACCURATE!!!
"$" is an indication the sensor requires maintenance

METAR text: PAAK 172154Z AUTO 18031G45KT 1 3/4SM -RA OVC021 03/01 A2911 RMK AO2 PK WND 18046/2130 VIS 1 1/4V3 PNO $
Conditions at: PAAK (ATKA , AK, US) observed 2154 UTC 17 February 2019
Temperature: 3.0°C (37°F)
Dewpoint: 1.0°C (34°F) [RH = 87%]
Pressure (altimeter): 29.11 inches Hg (985.9 mb)
Winds: from the S (180 degrees) at 36 MPH (31 knots; 15.9 m/s)
gusting to 52 MPH (45 knots; 23.1 m/s)
Visibility: 1.75 miles (2.82 km)
Ceiling: 2100 feet AGL
Clouds: overcast cloud deck at 2100 feet AGL
Weather: -RA  (light rain)
SOME DATA ABOVE MAY BE INACCURATE!!!
"$" is an indication the sensor requires maintenance

METAR text: PAAK 172137Z AUTO 18026G46KT 4SM -RA BKN023 OVC031 04/M01 A2913 RMK AO2 PK WND 18046/2130 PNO $
Conditions at: PAAK (ATKA , AK, US) observed 2137 UTC 17 February 2019
Temperature: 4.0°C (39°F)
Dewpoint: -1.0°C (30°F) [RH = 70%]
Pressure (altimeter): 29.13 inches Hg (986.5 mb)
Winds: from the S (180 degrees) at 30 MPH (26 knots; 13.4 m/s)
gusting to 53 MPH (46 knots; 23.7 m/s)
Visibility: 4 miles ( 6 km)
Ceiling: 2300 feet AGL
Clouds: broken clouds at 2300 feet AGL
overcast cloud deck at 3100 feet AGL
Weather: -RA  (light rain)
SOME DATA ABOVE MAY BE INACCURATE!!!
"$" is an indication the sensor requires maintenance

METAR text: PAAK 172130Z AUTO 18035G46KT 2 1/2SM -RA OVC023 04/00 A2914 RMK AO2 PK WND 18046/2130 VIS 1 1/2V4 PNO $
Conditions at: PAAK (ATKA , AK, US) observed 2130 UTC 17 February 2019
Temperature: 4.0°C (39°F)
Dewpoint: 0.0°C (32°F) [RH = 75%]
Pressure (altimeter): 29.14 inches Hg (986.9 mb)
Winds: from the S (180 degrees) at 40 MPH (35 knots; 18.0 m/s)
gusting to 53 MPH (46 knots; 23.7 m/s)
Visibility: 2.50 miles (4.02 km)
Ceiling: 2300 feet AGL
Clouds: overcast cloud deck at 2300 feet AGL
Weather: -RA  (light rain)
SOME DATA ABOVE MAY BE INACCURATE!!!
"$" is an indication the sensor requires maintenance

METAR text: PAAK 172106Z AUTO 17032G45KT 3SM -RA BKN025 OVC033 04/00 A2914 RMK AO2 PK WND 17045/2057 PNO $
Conditions at: PAAK (ATKA , AK, US) observed 2106 UTC 17 February 2019
Temperature: 4.0°C (39°F)
Dewpoint: 0.0°C (32°F) [RH = 75%]
Pressure (altimeter): 29.14 inches Hg (986.9 mb)
Winds: from the S (170 degrees) at 37 MPH (32 knots; 16.5 m/s)
gusting to 52 MPH (45 knots; 23.1 m/s)
Visibility: 3 miles ( 5 km)
Ceiling: 2500 feet AGL
Clouds: broken clouds at 2500 feet AGL
overcast cloud deck at 3300 feet AGL
Weather: -RA  (light rain)
SOME DATA ABOVE MAY BE INACCURATE!!!
"$" is an indication the sensor requires maintenance

 MAPA DO AEROPORTO

 INFORMAÇÕES DA PISTA
Pista 16 Tamanho da pista 4500 ft Largura da pista 100 ft
Elevação da pista 56 ft Ranhura da pista 0 ft Proa da pista 165
Pista 34 Tamanho da pista 4500 ft Largura da pista 100 ft
Elevação da pista 46 ft Ranhura da pista 0 ft Proa da pista 345

 FREQUÊNCIAS DO AEROPORTO

 AUXÍLIOS DE NAVEGAÇÃO PRÓXIMOS AO AEROPORTO



Powered by Mercosul Lnhas Aereas